Time;durP1;ratioP1;P1;durP2;ratioP2;P2;SDS_P1;SDS_P2;PMS_P1;PMS_P2;Temp;Humidity;BMP_temperature;BMP_pressure;BME280_temperature;BME280_humidity;BME280_pressure;Samples;Min_cycle;Max_cycle;Signal;HPM_P1;HPM_P2
2023/09/29 00:01:33;;;;;;;6.75;4.00;;;21.70;90.70;;;;;;7400665;19;20442;-74
2023/09/29 00:03:59;;;;;;;7.15;4.38;;;21.70;90.70;;;;;;7403270;19;19922;-74
2023/09/29 00:06:25;;;;;;;5.97;3.45;;;21.70;90.60;;;;;;7401008;19;19929;-73
2023/09/29 00:08:51;;;;;;;5.97;3.50;;;21.70;90.70;;;;;;7399668;19;19914;-74
2023/09/29 00:11:18;;;;;;;6.47;3.92;;;21.70;90.60;;;;;;7398374;19;19924;-75
2023/09/29 00:13:44;;;;;;;6.90;3.78;;;21.70;90.40;;;;;;7403756;19;20018;-73
2023/09/29 00:16:10;;;;;;;6.13;4.15;;;21.70;90.30;;;;;;7401557;19;20809;-76
2023/09/29 00:18:37;;;;;;;7.45;3.75;;;21.60;90.30;;;;;;7400676;19;19911;-74
2023/09/29 00:21:03;;;;;;;6.72;3.78;;;21.70;90.20;;;;;;7377555;19;20649;-72
2023/09/29 00:23:28;;;;;;;6.60;4.20;;;21.70;89.80;;;;;;7399210;19;19913;-74
2023/09/29 00:25:55;;;;;;;6.22;3.88;;;21.70;88.90;;;;;;7399317;19;20681;-73
2023/09/29 00:28:21;;;;;;;6.20;3.83;;;21.60;88.20;;;;;;7397228;19;20315;-73
2023/09/29 00:30:47;;;;;;;6.82;4.10;;;21.60;87.90;;;;;;7401545;19;19939;-74
2023/09/29 00:33:13;;;;;;;5.72;3.55;;;21.60;87.50;;;;;;7398318;19;20251;-73
2023/09/29 00:35:39;;;;;;;6.85;3.90;;;21.50;85.90;;;;;;7399180;19;19915;-75
2023/09/29 00:38:06;;;;;;;5.85;3.63;;;21.50;84.10;;;;;;7397372;19;19931;-73
2023/09/29 00:40:32;;;;;;;5.90;3.45;;;21.50;83.80;;;;;;7399577;19;19925;-75
2023/09/29 00:42:58;;;;;;;5.63;3.72;;;21.50;84.00;;;;;;7400953;19;19922;-75
2023/09/29 00:45:26;;;;;;;;;;;21.50;84.10;;;;;;7402276;19;19974;-76
2023/09/29 00:47:57;;;;;;;6.63;3.97;;;21.50;84.80;;;;;;7402614;19;19915;-76
2023/09/29 00:50:26;;;;;;;6.22;3.63;;;21.50;84.70;;;;;;7403154;19;19949;-76
2023/09/29 00:52:54;;;;;;;5.75;3.58;;;21.60;84.70;;;;;;7403460;19;19910;-75
2023/09/29 00:55:24;;;;;;;6.80;3.63;;;21.60;84.40;;;;;;7401365;19;19967;-76
2023/09/29 00:57:51;;;;;;;6.43;3.67;;;21.60;84.40;;;;;;7402559;19;20486;-76
2023/09/29 01:02:59;;;;;;;6.97;3.90;;;21.60;85.10;;;;;;7403321;19;19910;-74
2023/09/29 01:05:25;;;;;;;5.70;3.60;;;21.60;84.80;;;;;;7398675;19;19921;-77
2023/09/29 01:07:51;;;;;;;;;;;21.60;84.70;;;;;;7404886;19;19934;-75
2023/09/29 01:10:20;;;;;;;5.97;3.30;;;21.50;84.70;;;;;;7394202;19;19918;-75
2023/09/29 01:12:46;;;;;;;6.57;3.80;;;21.60;84.90;;;;;;7402448;19;19990;-74
2023/09/29 01:15:15;;;;;;;7.55;3.95;;;21.60;84.80;;;;;;7396723;19;19977;-75
2023/09/29 01:17:43;;;;;;;7.50;3.35;;;21.60;84.70;;;;;;7399238;19;19919;-78
2023/09/29 01:22:56;;;;;;;6.13;4.15;;;21.50;84.90;;;;;;7402847;19;19937;-75
2023/09/29 01:25:22;;;;;;;7.32;4.15;;;21.50;84.90;;;;;;7398627;19;20064;-76
2023/09/29 01:27:49;;;;;;;6.47;3.50;;;21.40;84.70;;;;;;7401068;19;19922;-77
2023/09/29 01:30:18;;;;;;;6.00;4.00;;;21.40;84.20;;;;;;7400691;19;19918;-76
2023/09/29 01:32:49;;;;;;;6.22;3.50;;;21.40;84.00;;;;;;7401252;19;19921;-75
2023/09/29 01:35:17;;;;;;;6.30;3.80;;;21.30;81.10;;;;;;7401146;19;20387;-76
2023/09/29 01:37:49;;;;;;;6.15;3.45;;;21.30;80.30;;;;;;7402177;19;19915;-76
2023/09/29 01:40:15;;;;;;;6.07;3.35;;;21.30;79.30;;;;;;7395238;19;19929;-74
2023/09/29 01:42:41;;;;;;;;;;;21.30;78.40;;;;;;7402333;19;20749;-77
2023/09/29 01:45:08;;;;;;;6.95;3.30;;;21.30;78.20;;;;;;7400229;19;19925;-75
2023/09/29 01:47:38;;;;;;;;;;;21.30;78.20;;;;;;7403191;19;19922;-78
2023/09/29 01:50:07;;;;;;;7.13;3.97;;;21.30;78.60;;;;;;7388704;19;19926;-73
2023/09/29 01:52:33;;;;;;;5.80;3.55;;;21.40;78.70;;;;;;7402985;19;19906;-73
2023/09/29 01:55:02;;;;;;;4.88;3.15;;;21.40;78.10;;;;;;7399653;19;19910;-72
2023/09/29 01:57:28;;;;;;;6.10;3.92;;;21.30;76.90;;;;;;7394690;19;20251;-74
2023/09/29 01:59:54;;;;;;;6.90;4.80;;;21.30;79.80;;;;;;7399031;19;19915;-72
2023/09/29 02:02:19;;;;;;;6.75;4.32;;;21.20;88.10;;;;;;7397132;19;19915;-73
2023/09/29 02:04:47;;;;;;;6.55;3.75;;;21.10;88.50;;;;;;7398570;19;20251;-72
2023/09/29 02:07:13;;;;;;;7.32;4.45;;;21.10;89.20;;;;;;7396403;19;19922;-73
2023/09/29 02:09:42;;;;;;;7.85;5.32;;;21.10;90.40;;;;;;7398078;19;19918;-73
2023/09/29 02:12:09;;;;;;;7.40;5.13;;;21.20;90.90;;;;;;7396322;19;20022;-71
2023/09/29 02:14:35;;;;;;;8.00;4.78;;;21.20;92.20;;;;;;7398462;19;19986;-75
2023/09/29 02:17:02;;;;;;;10.13;4.65;;;21.10;92.30;;;;;;7399314;19;19915;-73
2023/09/29 02:19:27;;;;;;;9.23;5.00;;;21.10;92.20;;;;;;7397708;19;19911;-73
2023/09/29 02:21:53;;;;;;;9.02;6.13;;;21.10;92.90;;;;;;7397276;19;19921;-74
2023/09/29 02:24:19;;;;;;;7.90;4.97;;;21.10;92.80;;;;;;7396864;19;19931;-74
2023/09/29 02:26:45;;;;;;;9.07;4.72;;;21.10;92.60;;;;;;7396778;19;20368;-72
2023/09/29 02:29:11;;;;;;;7.55;4.40;;;21.20;91.70;;;;;;7396788;19;19926;-73
2023/09/29 02:31:37;;;;;;;7.30;4.43;;;21.10;91.50;;;;;;7398446;19;19910;-73
2023/09/29 02:34:03;;;;;;;7.32;4.45;;;21.20;91.20;;;;;;7394501;19;19918;-74
2023/09/29 02:36:29;;;;;;;7.18;4.55;;;21.10;90.90;;;;;;7398622;19;19921;-73
2023/09/29 02:38:57;;;;;;;8.10;4.55;;;21.20;90.50;;;;;;7395611;19;19915;-72
2023/09/29 02:41:23;;;;;;;6.05;4.22;;;21.20;90.30;;;;;;7395465;19;19942;-72
2023/09/29 02:43:48;;;;;;;6.05;4.00;;;21.30;90.30;;;;;;7398166;19;20205;-72
2023/09/29 02:46:15;;;;;;;7.60;4.50;;;21.30;90.10;;;;;;7397168;19;19962;-72
2023/09/29 02:48:41;;;;;;;6.55;3.42;;;21.30;89.90;;;;;;7396541;19;20414;-73
2023/09/29 02:51:18;;;;;;;8.10;5.03;;;21.30;90.00;;;;;;7396833;19;19925;-72
2023/09/29 02:53:48;;;;;;;7.90;4.80;;;21.20;90.20;;;;;;7395975;19;19947;-72
2023/09/29 02:56:16;;;;;;;7.72;4.40;;;21.20;90.30;;;;;;7396444;19;19928;-72
2023/09/29 02:58:43;;;;;;;8.40;4.45;;;21.20;90.30;;;;;;7397999;19;19927;-73
2023/09/29 03:01:12;;;;;;;10.27;5.18;;;21.10;90.40;;;;;;7396187;19;20312;-73
2023/09/29 03:03:43;;;;;;;8.00;4.72;;;21.10;90.50;;;;;;7398178;19;19919;-73
2023/09/29 03:06:12;;;;;;;8.48;4.90;;;21.10;90.50;;;;;;7392888;19;19933;-72
2023/09/29 03:08:39;;;;;;;7.28;4.00;;;21.10;91.10;;;;;;7397100;19;19915;-73
2023/09/29 03:11:09;;;;;;;6.82;4.15;;;21.10;90.80;;;;;;7394869;19;19930;-74
2023/09/29 03:13:41;;;;;;;8.43;3.63;;;21.10;90.60;;;;;;7396106;19;20405;-73
2023/09/29 03:16:07;;;;;;;6.57;4.25;;;21.10;90.40;;;;;;7394061;19;19921;-73
2023/09/29 03:18:35;;;;;;;6.38;4.25;;;21.00;90.70;;;;;;7394909;19;19911;-72
2023/09/29 03:21:04;;;;;;;6.65;3.90;;;21.00;90.90;;;;;;7395402;19;19951;-75
2023/09/29 03:23:33;;;;;;;7.82;4.47;;;21.10;90.90;;;;;;7371829;19;19987;-74
2023/09/29 03:25:59;;;;;;;8.73;4.97;;;21.10;90.80;;;;;;7398283;19;19919;-74
2023/09/29 03:28:25;;;;;;;6.20;3.85;;;21.10;90.80;;;;;;7395629;19;19918;-73
2023/09/29 03:30:51;;;;;;;9.10;4.45;;;21.10;90.70;;;;;;7394503;19;19927;-74
2023/09/29 03:33:18;;;;;;;6.75;4.30;;;21.10;90.80;;;;;;7398231;19;19978;-74
2023/09/29 03:35:46;;;;;;;6.97;4.50;;;21.10;90.70;;;;;;7402442;19;20351;-72
2023/09/29 03:38:14;;;;;;;6.20;3.75;;;21.00;90.70;;;;;;7401726;19;19923;-74
2023/09/29 03:40:44;;;;;;;8.57;4.10;;;21.00;90.80;;;;;;7403938;19;19918;-74
2023/09/29 03:43:12;;;;;;;10.63;4.65;;;21.00;91.00;;;;;;7398793;19;19915;-74
2023/09/29 03:45:40;;;;;;;7.72;4.78;;;21.00;91.00;;;;;;7403537;19;19921;-76
2023/09/29 03:48:08;;;;;;;8.07;4.00;;;21.00;91.10;;;;;;7399659;19;19919;-72
2023/09/29 03:50:35;;;;;;;6.22;4.05;;;20.90;91.10;;;;;;7401231;19;19910;-72
2023/09/29 03:53:01;;;;;;;6.97;4.38;;;21.00;91.20;;;;;;7404736;19;20337;-73
2023/09/29 03:55:27;;;;;;;7.68;4.15;;;21.00;91.10;;;;;;7401364;19;20327;-73
2023/09/29 03:57:53;;;;;;;;;;;21.00;91.10;;;;;;7404744;19;19915;-72
2023/09/29 04:00:21;;;;;;;6.97;4.60;;;21.00;91.20;;;;;;7398898;19;19919;-75
2023/09/29 04:02:50;;;;;;;8.30;4.63;;;20.90;91.30;;;;;;7399750;19;19928;-72
2023/09/29 04:05:17;;;;;;;6.53;4.40;;;20.90;91.50;;;;;;7398332;19;20005;-73
2023/09/29 04:07:43;;;;;;;;;;;20.90;91.40;;;;;;7402655;19;19946;-75
2023/09/29 04:10:10;;;;;;;7.47;4.70;;;20.90;91.90;;;;;;7399204;19;20351;-73
2023/09/29 04:12:38;;;;;;;7.78;5.18;;;20.80;92.20;;;;;;7379797;19;19914;-72
2023/09/29 04:15:05;;;;;;;7.35;4.60;;;20.90;92.80;;;;;;7399659;19;19982;-73
2023/09/29 04:17:31;;;;;;;7.75;5.20;;;20.90;92.60;;;;;;7400878;19;19919;-76
2023/09/29 04:19:57;;;;;;;7.88;5.60;;;20.90;92.70;;;;;;7381403;19;19917;-74
2023/09/29 04:22:26;;;;;;;7.07;5.10;;;20.90;93.10;;;;;;7400678;19;19923;-76
2023/09/29 04:24:52;;;;;;;8.50;5.68;;;20.90;93.00;;;;;;7401334;19;19946;-75
2023/09/29 04:27:18;;;;;;;10.35;5.70;;;20.90;93.00;;;;;;7401411;19;19914;-74
2023/09/29 04:29:44;;;;;;;8.00;5.32;;;21.00;93.00;;;;;;7400947;19;19973;-76
2023/09/29 04:32:10;;;;;;;7.65;5.03;;;21.00;93.00;;;;;;7402776;19;20319;-76
2023/09/29 04:34:36;;;;;;;8.90;5.03;;;20.90;93.00;;;;;;7403274;19;20387;-76
2023/09/29 04:37:01;;;;;;;9.55;5.53;;;20.90;93.20;;;;;;7401969;19;19911;-75
2023/09/29 04:39:28;;;;;;;7.28;5.57;;;20.90;93.20;;;;;;7376044;19;19915;-75
2023/09/29 04:41:54;;;;;;;7.55;5.78;;;20.90;93.50;;;;;;7400326;19;19926;-74
2023/09/29 04:44:20;;;;;;;8.27;4.90;;;20.90;93.40;;;;;;7401305;19;19915;-75
2023/09/29 04:46:46;;;;;;;8.15;5.35;;;20.90;93.40;;;;;;7402144;19;19915;-75
2023/09/29 04:49:13;;;;;;;9.70;6.15;;;20.90;93.30;;;;;;7376566;19;19930;-75
2023/09/29 04:51:39;;;;;;;8.43;5.28;;;20.90;93.70;;;;;;7399388;19;19974;-73
2023/09/29 04:54:06;;;;;;;8.63;5.10;;;21.00;93.80;;;;;;7397750;19;19986;-74
2023/09/29 04:56:32;;;;;;;9.02;5.10;;;20.90;93.50;;;;;;7399588;19;19931;-74
2023/09/29 04:58:58;;;;;;;9.13;5.82;;;20.90;93.80;;;;;;7402307;19;19922;-74
2023/09/29 05:01:26;;;;;;;8.70;5.97;;;20.90;93.90;;;;;;7399800;19;19918;-75
2023/09/29 05:03:53;;;;;;;12.27;5.68;;;20.90;93.80;;;;;;7401836;19;19915;-75
2023/09/29 05:06:20;;;;;;;9.20;5.78;;;20.90;93.90;;;;;;7398119;19;19918;-76
2023/09/29 05:08:46;;;;;;;9.68;5.15;;;21.00;94.00;;;;;;7401559;19;19914;-76
2023/09/29 05:11:22;;;;;;;8.35;5.43;;;20.90;93.90;;;;;;7398232;19;19958;-75
2023/09/29 05:13:49;;;;;;;8.00;5.57;;;21.00;94.00;;;;;;7379596;19;19922;-75
2023/09/29 05:16:15;;;;;;;9.73;5.13;;;21.00;93.90;;;;;;7397850;19;19922;-79
2023/09/29 05:18:43;;;;;;;12.15;5.97;;;21.00;93.80;;;;;;7401025;19;19922;-74
2023/09/29 05:21:10;;;;;;;8.00;5.47;;;21.10;93.70;;;;;;7400942;19;19953;-77
2023/09/29 05:23:37;;;;;;;8.55;5.90;;;21.00;93.70;;;;;;7401731;19;22038;-73
2023/09/29 05:26:05;;;;;;;9.48;5.88;;;21.00;93.80;;;;;;7399102;19;19922;-76
2023/09/29 05:28:32;;;;;;;7.32;4.90;;;21.00;93.80;;;;;;7399087;19;19953;-75
2023/09/29 05:30:59;;;;;;;8.35;5.32;;;21.00;93.90;;;;;;7399439;19;19948;-73
2023/09/29 05:33:26;;;;;;;8.77;5.88;;;20.90;94.00;;;;;;7398262;19;19926;-73
2023/09/29 05:35:55;;;;;;;10.02;5.50;;;20.90;94.00;;;;;;7397836;19;19914;-74
2023/09/29 05:38:21;;;;;;;11.88;5.82;;;21.00;94.10;;;;;;7399972;19;19922;-75
2023/09/29 05:40:47;;;;;;;11.20;6.03;;;21.00;94.10;;;;;;7400107;19;19919;-76
2023/09/29 05:43:13;;;;;;;;;;;21.00;94.20;;;;;;7401086;19;20006;-75
2023/09/29 05:45:42;;;;;;;8.95;5.55;;;21.00;94.20;;;;;;7397965;19;19931;-74
2023/09/29 05:48:08;;;;;;;10.38;5.65;;;21.00;94.20;;;;;;7398835;19;19922;-73
2023/09/29 05:50:34;;;;;;;8.30;5.30;;;21.00;94.30;;;;;;7398529;19;19915;-76
2023/09/29 05:53:00;;;;;;;9.55;5.75;;;21.00;94.20;;;;;;7399760;19;19941;-73
2023/09/29 05:55:26;;;;;;;8.68;4.75;;;21.10;94.30;;;;;;7398683;19;20239;-72
2023/09/29 05:57:52;;;;;;;7.22;4.63;;;21.10;94.30;;;;;;7375808;19;21568;-72
2023/09/29 06:00:20;;;;;;;8.93;5.25;;;21.20;94.30;;;;;;7393941;19;19979;-74
2023/09/29 06:02:46;;;;;;;10.30;5.63;;;21.20;94.30;;;;;;7378323;19;19934;-74
2023/09/29 06:05:13;;;;;;;9.98;5.70;;;21.20;94.40;;;;;;7398174;19;19919;-74
2023/09/29 06:07:42;;;;;;;8.02;5.22;;;21.30;94.40;;;;;;7398617;19;19981;-76
2023/09/29 06:10:09;;;;;;;8.23;5.43;;;21.30;94.30;;;;;;7398565;19;19922;-75
2023/09/29 06:12:37;;;;;;;17.75;12.68;;;21.40;94.20;;;;;;7398847;19;19922;-75
2023/09/29 06:15:03;;;;;;;11.20;6.80;;;21.40;94.10;;;;;;7398619;19;19938;-74
2023/09/29 06:17:29;;;;;;;;;;;21.40;94.10;;;;;;7400906;19;19970;-76
2023/09/29 06:19:55;;;;;;;9.40;4.95;;;21.40;94.10;;;;;;7399127;19;19918;-77
2023/09/29 06:22:21;;;;;;;8.77;5.43;;;21.50;94.00;;;;;;7397190;19;19914;-73
2023/09/29 06:24:47;;;;;;;8.32;5.68;;;21.60;93.90;;;;;;7399620;19;20334;-75
2023/09/29 06:27:14;;;;;;;11.63;5.00;;;21.60;93.80;;;;;;7376232;19;19914;-74
2023/09/29 06:29:40;;;;;;;9.27;5.13;;;21.70;93.70;;;;;;7401667;19;19926;-76
2023/09/29 06:32:08;;;;;;;8.85;5.30;;;21.70;93.60;;;;;;7400928;19;19950;-76
2023/09/29 06:34:35;;;;;;;9.73;5.68;;;21.70;93.50;;;;;;7399096;19;19915;-75
2023/09/29 06:37:01;;;;;;;11.35;5.38;;;21.70;93.40;;;;;;7377412;19;19922;-75
2023/09/29 06:39:27;;;;;;;9.93;5.47;;;21.80;93.30;;;;;;7396710;19;19922;-75
2023/09/29 06:41:54;;;;;;;10.02;4.93;;;21.90;93.00;;;;;;7396955;19;19930;-74
2023/09/29 06:44:20;;;;;;;8.70;5.20;;;22.00;92.90;;;;;;7399234;19;19954;-76
2023/09/29 06:46:45;;;;;;;10.80;5.70;;;22.10;92.60;;;;;;7401980;19;20609;-77
2023/09/29 06:49:13;;;;;;;9.05;4.60;;;22.10;92.40;;;;;;7400983;19;20258;-74
2023/09/29 06:51:38;;;;;;;11.50;5.53;;;22.20;92.20;;;;;;7401759;19;19918;-76
2023/09/29 06:54:05;;;;;;;10.23;4.68;;;22.30;92.00;;;;;;7397958;19;19921;-74
2023/09/29 06:56:30;;;;;;;11.98;5.68;;;22.30;91.80;;;;;;7393474;19;19918;-74
2023/09/29 06:58:58;;;;;;;8.07;5.32;;;22.40;91.60;;;;;;7395102;19;19967;-74
2023/09/29 07:01:27;;;;;;;9.30;5.22;;;22.40;91.50;;;;;;7385900;19;19921;-73
2023/09/29 07:03:54;;;;;;;7.70;4.88;;;22.50;91.60;;;;;;7394073;19;19911;-77
2023/09/29 07:06:25;;;;;;;10.40;6.45;;;22.50;91.10;;;;;;7387492;19;19926;-76
2023/09/29 07:08:51;;;;;;;9.30;4.63;;;22.60;91.00;;;;;;7398060;19;19910;-74
2023/09/29 07:11:17;;;;;;;9.40;4.80;;;22.70;90.90;;;;;;7372348;19;19922;-75
2023/09/29 07:13:47;;;;;;;6.88;4.53;;;22.70;90.70;;;;;;7380648;19;19936;-75
2023/09/29 07:16:13;;;;;;;7.85;5.38;;;22.80;90.50;;;;;;7387642;19;19910;-74
2023/09/29 07:18:41;;;;;;;10.40;5.43;;;22.80;90.30;;;;;;7398773;19;19925;-76
2023/09/29 07:21:06;;;;;;;9.45;5.07;;;22.90;90.20;;;;;;7394960;19;19919;-74
2023/09/29 07:23:34;;;;;;;14.02;5.50;;;22.90;90.00;;;;;;7402184;19;19914;-74
2023/09/29 07:26:00;;;;;;;12.10;5.43;;;23.00;89.80;;;;;;7400243;19;19914;-76
2023/09/29 07:28:26;;;;;;;9.38;5.43;;;23.00;89.60;;;;;;7396158;19;19923;-77
2023/09/29 07:30:52;;;;;;;10.30;5.47;;;23.00;89.30;;;;;;7391711;19;19957;-74
2023/09/29 07:33:18;;;;;;;10.13;6.05;;;23.10;88.90;;;;;;7398432;19;19936;-75
2023/09/29 07:35:45;;;;;;;9.93;5.00;;;23.20;88.50;;;;;;7389885;19;20369;-75
2023/09/29 07:38:12;;;;;;;13.13;5.57;;;23.30;88.10;;;;;;7394082;19;19918;-75
2023/09/29 07:40:38;;;;;;;;;;;23.30;87.50;;;;;;7402609;19;20495;-75
2023/09/29 07:43:05;;;;;;;9.18;5.30;;;23.40;87.00;;;;;;7401402;19;19970;-74
2023/09/29 07:45:34;;;;;;;;;;;23.50;86.90;;;;;;7396608;19;19922;-73
2023/09/29 07:48:00;;;;;;;15.60;9.95;;;23.50;86.10;;;;;;7396088;19;20339;-73
2023/09/29 07:50:28;;;;;;;9.57;5.47;;;23.60;85.30;;;;;;7395853;19;19946;-76
2023/09/29 07:52:55;;;;;;;10.23;5.63;;;23.70;85.10;;;;;;7394538;19;19921;-74
2023/09/29 07:55:21;;;;;;;8.75;5.95;;;23.70;84.60;;;;;;7396033;19;19937;-72
2023/09/29 07:57:46;;;;;;;11.70;4.88;;;23.80;84.20;;;;;;7394658;19;19962;-72
2023/09/29 08:00:15;;;;;;;8.55;4.90;;;23.90;83.90;;;;;;7379943;19;19982;-74
2023/09/29 08:02:41;;;;;;;8.02;4.45;;;24.00;83.30;;;;;;7395917;19;19921;-73
2023/09/29 08:05:08;;;;;;;9.65;5.15;;;24.00;83.70;;;;;;7391152;19;20616;-76
2023/09/29 08:07:34;;;;;;;7.57;4.40;;;24.00;82.60;;;;;;7385242;19;20326;-72
2023/09/29 08:10:00;;;;;;;10.75;4.70;;;24.10;82.20;;;;;;7363943;19;19922;-73
2023/09/29 08:12:26;;;;;;;9.32;5.07;;;24.20;82.40;;;;;;7393500;19;20521;-73
2023/09/29 08:14:52;;;;;;;7.38;5.10;;;24.20;82.10;;;;;;7400662;19;20232;-73
2023/09/29 08:17:19;;;;;;;9.70;4.80;;;24.20;81.40;;;;;;7393519;19;19926;-73
2023/09/29 08:19:45;;;;;;;7.93;4.82;;;24.30;81.20;;;;;;7386539;19;19918;-74
2023/09/29 08:22:11;;;;;;;10.23;4.50;;;24.40;80.40;;;;;;7389189;19;20570;-73
2023/09/29 08:24:38;;;;;;;7.25;4.35;;;24.50;80.70;;;;;;7398895;19;19927;-73
2023/09/29 08:27:04;;;;;;;8.52;5.07;;;24.60;81.10;;;;;;7390343;19;19914;-78
2023/09/29 08:29:30;;;;;;;16.30;8.35;;;24.70;81.50;;;;;;7400997;19;19931;-74
2023/09/29 08:31:58;;;;;;;7.78;4.30;;;24.80;82.00;;;;;;7388817;19;19915;-74
2023/09/29 08:34:24;;;;;;;8.73;4.13;;;25.00;82.40;;;;;;7389611;19;19975;-74
2023/09/29 08:36:52;;;;;;;8.73;4.57;;;25.00;80.80;;;;;;7388531;19;19965;-74
2023/09/29 08:39:17;;;;;;;10.50;5.20;;;25.10;78.70;;;;;;7401557;19;19914;-74
2023/09/29 08:41:55;;;;;;;10.20;4.75;;;25.30;77.70;;;;;;7397029;19;19975;-75
2023/09/29 08:44:26;;;;;;;9.93;5.25;;;25.30;76.80;;;;;;7397972;19;19910;-73
2023/09/29 08:46:57;;;;;;;7.15;3.78;;;25.40;76.30;;;;;;7397278;19;20595;-77
2023/09/29 08:49:23;;;;;;;11.63;4.85;;;25.60;75.80;;;;;;7395609;19;19946;-76
2023/09/29 08:51:49;;;;;;;9.13;4.35;;;25.80;75.00;;;;;;7392063;19;19982;-74
2023/09/29 08:54:17;;;;;;;12.20;5.53;;;25.90;73.90;;;;;;7398911;19;19929;-77
2023/09/29 08:56:48;;;;;;;9.55;4.63;;;26.10;73.10;;;;;;7400334;19;19922;-77
2023/09/29 08:59:15;;;;;;;8.85;4.50;;;26.20;72.40;;;;;;7389724;19;19914;-77
2023/09/29 09:01:41;;;;;;;7.78;4.38;;;26.40;70.90;;;;;;7386200;19;19971;-76
2023/09/29 09:04:08;;;;;;;9.32;4.05;;;26.50;69.90;;;;;;7389842;19;19919;-78
2023/09/29 09:06:34;;;;;;;9.65;4.57;;;26.70;69.00;;;;;;7389457;19;20498;-75
2023/09/29 09:09:00;;;;;;;8.70;4.53;;;26.80;67.70;;;;;;7402514;19;19931;-76
2023/09/29 09:11:27;;;;;;;9.00;4.88;;;26.80;67.50;;;;;;7378075;19;19939;-77
2023/09/29 09:14:03;;;;;;;8.05;4.55;;;26.90;67.80;;;;;;7385700;19;20336;-73
2023/09/29 09:16:36;;;;;;;7.75;4.65;;;27.00;67.20;;;;;;7366638;19;19921;-76
2023/09/29 09:19:13;;;;;;;9.55;4.35;;;27.20;65.90;;;;;;7398016;19;19926;-76
2023/09/29 09:21:40;;;;;;;7.65;4.07;;;27.40;65.60;;;;;;7387255;19;20224;-73
2023/09/29 09:24:23;;;;;;;10.57;4.65;;;27.50;64.10;;;;;;7398128;19;19925;-80
2023/09/29 09:26:50;;;;;;;9.48;5.82;;;27.50;61.30;;;;;;7394939;19;19917;-77
2023/09/29 09:29:18;;;;;;;7.32;4.68;;;27.30;60.80;;;;;;7389602;19;19918;-73
2023/09/29 09:31:53;;;;;;;11.90;5.18;;;27.40;61.00;;;;;;7390532;19;19910;-73
2023/09/29 09:34:19;;;;;;;8.60;4.85;;;27.60;60.60;;;;;;7399841;19;19915;-79
2023/09/29 09:36:52;;;;;;;8.35;3.90;;;27.70;59.50;;;;;;7398911;19;19930;-76
2023/09/29 09:39:24;;;;;;;8.07;5.00;;;27.70;57.80;;;;;;7396606;19;19914;-79
2023/09/29 09:41:56;;;;;;;9.23;4.75;;;27.50;57.90;;;;;;7401387;19;19914;-78
2023/09/29 09:44:25;;;;;;;8.27;4.93;;;27.60;58.70;;;;;;7402589;19;19914;-74
2023/09/29 09:47:10;;;;;;;10.27;4.13;;;27.70;58.90;;;;;;7370716;19;19935;-74
2023/09/29 09:49:45;;;;;;;10.63;4.55;;;27.70;59.80;;;;;;7398705;19;19918;-79
2023/09/29 09:52:15;;;;;;;14.32;6.00;;;28.00;59.30;;;;;;7403281;19;19910;-74
2023/09/29 09:54:58;;;;;;;11.68;5.72;;;28.10;58.00;;;;;;7394233;19;20349;-75
2023/09/29 09:57:37;;;;;;;17.25;5.70;;;28.30;56.50;;;;;;7398747;19;20263;-76
2023/09/29 10:00:10;;;;;;;17.13;5.80;;;28.60;54.40;;;;;;7402036;19;19911;-78
2023/09/29 10:03:04;;;;;;;12.20;5.68;;;28.90;53.50;;;;;;7403316;19;19918;-75
2023/09/29 10:05:32;;;;;;;12.40;6.47;;;29.20;52.80;;;;;;7400210;19;19910;-74
2023/09/29 10:08:03;;;;;;;14.63;6.80;;;28.90;52.90;;;;;;7396826;19;19990;-77
2023/09/29 10:10:33;;;;;;;14.52;6.63;;;28.90;52.90;;;;;;7398250;19;20002;-77
2023/09/29 10:13:04;;;;;;;13.70;6.20;;;29.30;52.00;;;;;;7390310;19;19918;-78
2023/09/29 10:15:30;;;;;;;13.38;6.93;;;29.20;51.30;;;;;;7391352;19;19911;-76
2023/09/29 10:18:00;;;;;;;11.55;6.10;;;29.30;52.10;;;;;;7388908;19;20211;-76
2023/09/29 10:20:29;;;;;;;12.38;6.35;;;29.50;51.50;;;;;;7399231;19;21220;-77
2023/09/29 10:23:10;;;;;;;10.00;5.90;;;29.60;52.00;;;;;;7393650;19;19918;-79
2023/09/29 10:25:38;;;;;;;11.15;6.57;;;30.20;50.80;;;;;;7387676;19;19920;-74
2023/09/29 10:28:07;;;;;;;10.38;5.32;;;30.20;49.70;;;;;;7386523;19;20251;-74
2023/09/29 10:30:34;;;;;;;12.23;6.13;;;30.50;48.80;;;;;;7397663;19;19930;-75
2023/09/29 10:33:06;;;;;;;13.63;5.75;;;30.70;48.10;;;;;;7397853;19;20007;-79
2023/09/29 10:35:36;;;;;;;9.45;4.93;;;31.20;48.20;;;;;;7398828;19;19978;-74
2023/09/29 10:38:12;;;;;;;11.15;5.10;;;31.30;46.80;;;;;;7391582;19;19910;-77
2023/09/29 10:40:38;;;;;;;10.88;5.65;;;31.80;45.70;;;;;;7401677;19;19919;-75
2023/09/29 10:43:06;;;;;;;10.50;6.20;;;32.10;44.10;;;;;;7397684;19;20430;-78
2023/09/29 10:45:37;;;;;;;10.93;6.57;;;31.80;45.00;;;;;;7393472;19;19919;-76
2023/09/29 10:48:23;;;;;;;11.00;6.13;;;31.40;46.00;;;;;;7401123;19;19918;-79
2023/09/29 10:50:50;;;;;;;16.80;5.95;;;31.70;45.90;;;;;;7398427;19;19921;-80
2023/09/29 10:53:17;;;;;;;16.02;5.80;;;32.00;44.90;;;;;;7401028;19;19927;-76
2023/09/29 10:55:49;;;;;;;11.70;5.88;;;32.30;43.80;;;;;;7401184;19;19925;-79
2023/09/29 10:58:17;;;;;;;12.10;5.47;;;32.60;43.80;;;;;;7396003;19;19915;-76
2023/09/29 11:00:47;;;;;;;11.40;5.85;;;32.80;42.30;;;;;;7393233;19;20504;-75
2023/09/29 11:03:23;;;;;;;9.90;6.18;;;33.20;41.30;;;;;;7390900;19;19922;-75
2023/09/29 11:05:53;;;;;;;8.77;5.65;;;32.90;41.80;;;;;;7401020;19;19934;-74
2023/09/29 11:08:27;;;;;;;9.57;6.53;;;33.10;40.80;;;;;;7379082;19;19926;-75
2023/09/29 11:10:57;;;;;;;7.55;4.93;;;32.80;40.90;;;;;;7395881;19;20272;-74
2023/09/29 11:13:24;;;;;;;9.07;4.97;;;33.00;40.90;;;;;;7394757;19;20255;-78
2023/09/29 11:15:51;;;;;;;6.95;5.95;;;33.00;40.70;;;;;;7391727;19;19923;-74
2023/09/29 11:18:27;;;;;;;10.30;6.93;;;33.50;40.30;;;;;;7366701;19;19944;-77
2023/09/29 11:20:58;;;;;;;18.38;14.18;;;33.50;38.80;;;;;;7393647;19;19925;-75
2023/09/29 11:23:24;;;;;;;8.32;7.30;;;33.60;39.20;;;;;;7389571;19;19935;-78
2023/09/29 11:25:56;;;;;;;7.40;6.40;;;34.10;36.70;;;;;;7395684;19;19922;-77
2023/09/29 11:28:22;;;;;;;;;;;33.90;37.40;;;;;;7389585;19;19935;-79
2023/09/29 11:30:49;;;;;;;7.80;6.32;;;34.20;36.50;;;;;;7390053;19;19927;-75
2023/09/29 11:33:16;;;;;;;7.10;6.30;;;34.10;35.60;;;;;;7395482;19;19930;-76
2023/09/29 11:35:45;;;;;;;10.75;5.72;;;34.30;34.30;;;;;;7387624;19;19942;-74
2023/09/29 11:38:20;;;;;;;9.63;6.75;;;34.50;33.80;;;;;;7382202;19;19924;-75
2023/09/29 11:40:49;;;;;;;6.35;5.65;;;34.60;34.20;;;;;;7387336;19;20336;-74
2023/09/29 11:43:15;;;;;;;11.57;6.80;;;35.00;33.30;;;;;;7367108;19;19926;-76
2023/09/29 11:45:42;;;;;;;11.35;7.00;;;34.80;34.10;;;;;;7387717;19;20486;-78
2023/09/29 11:48:08;;;;;;;10.88;6.47;;;34.80;34.10;;;;;;7395335;19;19918;-76
2023/09/29 11:50:34;;;;;;;8.75;5.45;;;34.20;35.70;;;;;;7403442;19;19918;-76
2023/09/29 11:53:03;;;;;;;6.43;5.47;;;34.70;34.50;;;;;;7397103;19;19915;-74
2023/09/29 11:55:30;;;;;;;10.02;6.88;;;34.90;33.60;;;;;;7391878;19;19926;-78
2023/09/29 11:57:56;;;;;;;7.55;6.50;;;34.70;32.60;;;;;;7404639;19;19927;-75
2023/09/29 12:00:22;;;;;;;7.78;5.63;;;34.30;33.90;;;;;;7393922;19;21215;-78
2023/09/29 12:02:49;;;;;;;8.73;6.07;;;34.30;33.60;;;;;;7403597;19;19977;-75
2023/09/29 12:05:15;;;;;;;8.10;6.43;;;33.90;34.00;;;;;;7401443;19;19923;-76
2023/09/29 12:07:40;;;;;;;8.35;6.18;;;34.50;32.50;;;;;;7404784;19;19921;-81
2023/09/29 12:10:07;;;;;;;8.65;6.85;;;34.90;32.60;;;;;;7406002;19;19933;-74
2023/09/29 12:12:36;;;;;;;8.75;6.13;;;35.30;32.50;;;;;;7407682;19;20354;-78
2023/09/29 12:15:03;;;;;;;8.20;6.38;;;35.30;31.60;;;;;;7405340;19;19922;-79
2023/09/29 12:17:30;;;;;;;8.35;6.68;;;35.30;32.20;;;;;;7405888;19;19919;-76
2023/09/29 12:19:55;;;;;;;9.60;6.63;;;35.00;32.90;;;;;;7404295;19;19970;-78
2023/09/29 12:22:22;;;;;;;8.38;4.80;;;35.10;33.30;;;;;;7405255;19;19960;-76
2023/09/29 12:24:49;;;;;;;11.35;7.75;;;34.50;34.60;;;;;;7404410;19;19911;-76
2023/09/29 12:27:15;;;;;;;10.18;7.05;;;35.10;34.50;;;;;;7402375;19;19926;-77
2023/09/29 12:29:41;;;;;;;11.68;7.97;;;34.20;34.70;;;;;;7406550;19;19911;-75
2023/09/29 12:32:07;;;;;;;10.68;7.57;;;34.50;34.30;;;;;;7404995;19;19911;-76
2023/09/29 12:34:33;;;;;;;9.90;7.78;;;34.20;34.50;;;;;;7408160;19;19923;-78
2023/09/29 12:37:04;;;;;;;8.50;6.25;;;33.80;35.10;;;;;;7407002;19;19923;-74
2023/09/29 12:39:30;;;;;;;9.13;6.18;;;33.90;34.70;;;;;;7402279;19;19931;-77
2023/09/29 12:41:57;;;;;;;7.78;6.43;;;33.80;34.30;;;;;;7404414;19;19911;-78
2023/09/29 12:44:23;;;;;;;7.72;6.30;;;34.10;34.10;;;;;;7400912;19;20395;-75
2023/09/29 12:46:49;;;;;;;7.55;6.82;;;33.90;32.70;;;;;;7405057;19;19919;-78
2023/09/29 12:49:15;;;;;;;7.95;6.60;;;34.00;33.80;;;;;;7380238;19;19921;-75
2023/09/29 12:51:41;;;;;;;7.10;6.03;;;34.10;33.30;;;;;;7401944;19;20343;-75
2023/09/29 12:54:07;;;;;;;8.48;6.43;;;34.50;31.70;;;;;;7404199;19;19922;-77
2023/09/29 12:56:32;;;;;;;6.82;5.47;;;33.80;31.40;;;;;;7401403;19;19994;-75